In Rescue
 
Open Full Screen Window  High Contrast Mode
Wind Gusting 00 knots
05
January 16, 2020 7:45 AM CST
Weather Information
Wind Direction
  310 °
Wind Speed
  05 kt (6 mph)
Wind Gust
  00 kt (0 mph)
Altimeter
30.74 in
Visibility
10 SM
Temperature
-29° C
-19° F
Dewpoint
-32° C
-25° F
Humidity
75%
1hr Rain Fall
00.00 in.
24hr Rain Fall
00.00 in.
Sky Condition
Missing
VFR

METAR KD39 161345Z AUTO 31005KT 10SM M29/M32 A3074 RMK AO2 T12881316

FAA Disclaimer: The data displayed is for advisory purposes only and is not to be used for flight planning or operations.
Missing Cloud Data